Time;durP1;ratioP1;P1;durP2;ratioP2;P2;SDS_P1;SDS_P2;PMS_P1;PMS_P2;Temp;Humidity;BMP_temperature;BMP_pressure;BME280_temperature;BME280_humidity;BME280_pressure;Samples;Min_cycle;Max_cycle;Signal;HPM_P1;HPM_P2
2022/03/07 00:01:41;;;;;;;20.77;19.30;;;;;;;-2.18;92.19;102815.69;5031572;28;20793;-44
2022/03/07 00:04:09;;;;;;;22.00;20.60;;;;;;;-2.19;92.22;102821.84;5031500;28;20440;-44
2022/03/07 00:06:37;;;;;;;24.43;22.30;;;;;;;-2.19;92.07;102813.16;5034805;28;20471;-44
2022/03/07 00:09:06;;;;;;;22.67;20.97;;;;;;;-2.22;91.74;102808.91;5034710;28;20821;-44
2022/03/07 00:11:35;;;;;;;23.37;21.10;;;;;;;-2.25;92.13;102806.44;5035748;28;20522;-44
2022/03/07 00:14:02;;;;;;;22.40;20.40;;;;;;;-2.27;92.06;102808.28;5035395;28;20442;-43
2022/03/07 00:16:30;;;;;;;20.67;19.07;;;;;;;-2.28;92.62;102810.03;5035283;28;20448;-43
2022/03/07 00:18:58;;;;;;;20.70;19.20;;;;;;;-2.30;92.32;102811.00;5034277;28;20464;-43
2022/03/07 00:21:26;;;;;;;21.43;19.83;;;;;;;-2.30;92.22;102808.41;5035352;28;20722;-43
2022/03/07 00:23:54;;;;;;;21.80;20.10;;;;;;;-2.33;92.89;102821.59;5035003;28;20436;-43
2022/03/07 00:26:24;;;;;;;19.70;18.57;;;;;;;-2.34;92.78;102809.44;5035180;28;20536;-42
2022/03/07 00:28:51;;;;;;;21.60;19.90;;;;;;;-2.36;92.19;102819.09;5034539;28;20467;-42
2022/03/07 00:31:21;;;;;;;23.07;21.27;;;;;;;-2.40;92.94;102813.16;5035150;28;20920;-43
2022/03/07 00:33:49;;;;;;;21.47;19.87;;;;;;;-2.43;92.49;102821.13;5035273;28;20439;-46
2022/03/07 00:36:18;;;;;;;20.63;19.03;;;;;;;-2.45;93.03;102816.88;5035000;28;20448;-47
2022/03/07 00:38:46;;;;;;;20.63;18.90;;;;;;;-2.45;92.81;102824.69;5034241;28;20546;-43
2022/03/07 00:41:13;;;;;;;21.70;20.03;;;;;;;-2.47;93.14;102826.50;5034917;28;20475;-43
2022/03/07 00:43:42;;;;;;;19.70;18.20;;;;;;;-2.50;93.06;102832.72;5034847;28;20435;-44
2022/03/07 00:46:10;;;;;;;22.40;20.20;;;;;;;-2.52;92.98;102837.16;5034474;28;20525;-44
2022/03/07 00:48:38;;;;;;;20.80;19.30;;;;;;;-2.51;92.90;102835.41;5034286;28;20464;-45
2022/03/07 00:51:05;;;;;;;20.90;19.30;;;;;;;-2.55;92.93;102839.91;5034824;28;20511;-43
2022/03/07 00:53:33;;;;;;;23.23;21.50;;;;;;;-2.55;93.09;102833.81;5034624;28;20941;-43
2022/03/07 00:56:01;;;;;;;21.47;19.97;;;;;;;-2.57;93.32;102835.66;5060264;22;20916;-43
2022/03/07 00:58:30;;;;;;;21.60;19.90;;;;;;;-2.58;92.86;102832.19;5045936;28;20848;-43
2022/03/07 01:00:59;;;;;;;22.90;21.17;;;;;;;-2.58;93.11;102833.94;5054518;28;20563;-44
2022/03/07 01:03:27;;;;;;;21.17;19.50;;;;;;;-2.58;93.27;102833.94;5054672;28;20435;-43
2022/03/07 01:05:55;;;;;;;22.20;20.17;;;;;;;-2.60;93.22;102834.00;5054325;28;20455;-42
2022/03/07 01:08:23;;;;;;;20.93;19.67;;;;;;;-2.60;92.99;102835.78;5053625;28;20550;-43
2022/03/07 01:10:51;;;;;;;21.37;19.63;;;;;;;-2.60;93.38;102851.44;5054245;28;20492;-44
2022/03/07 01:13:19;;;;;;;20.57;19.10;;;;;;;-2.61;93.41;102849.72;5054355;28;20525;-42
2022/03/07 01:15:47;;;;;;;19.43;18.10;;;;;;;-2.63;93.31;102843.72;5054085;28;20890;-47
2022/03/07 01:18:19;;;;;;;22.53;20.63;;;;;;;-2.63;93.65;102841.97;5052626;28;20821;-48
2022/03/07 01:20:47;;;;;;;21.80;20.20;;;;;;;-2.64;93.65;102844.63;5054048;28;20471;-41
2022/03/07 01:23:15;;;;;;;20.43;19.13;;;;;;;-2.65;93.68;102835.94;5053961;28;20944;-42
2022/03/07 01:25:42;;;;;;;20.60;19.07;;;;;;;-2.64;93.79;102834.19;5053771;28;20895;-42
2022/03/07 01:28:10;;;;;;;21.40;19.77;;;;;;;-2.66;93.51;102830.78;5053385;28;20464;-46
2022/03/07 01:30:37;;;;;;;19.37;18.10;;;;;;;-2.68;93.25;102832.59;5053983;28;20438;-41
2022/03/07 01:33:05;;;;;;;22.80;20.77;;;;;;;-2.68;93.92;102824.75;5053749;28;20959;-44
2022/03/07 01:35:34;;;;;;;20.53;19.20;;;;;;;-2.69;93.74;102837.00;5053771;28;20785;-47
2022/03/07 01:38:03;;;;;;;21.40;19.63;;;;;;;-2.71;93.77;102830.09;5053030;28;20550;-43
2022/03/07 01:40:31;;;;;;;20.67;19.37;;;;;;;-2.73;93.73;102826.72;5053814;28;20805;-42
2022/03/07 01:42:59;;;;;;;19.83;18.43;;;;;;;-2.73;93.74;102818.88;5053786;28;20530;-43
2022/03/07 01:45:26;;;;;;;21.63;19.70;;;;;;;-2.76;93.80;102825.06;5050445;28;20461;-41
2022/03/07 01:47:54;;;;;;;22.03;20.47;;;;;;;-2.78;93.87;102811.25;5052933;28;20455;-42
2022/03/07 01:50:22;;;;;;;20.80;19.30;;;;;;;-2.78;93.67;102813.84;5053466;28;20439;-43
2022/03/07 01:52:53;;;;;;;19.40;18.20;;;;;;;-2.78;93.67;102813.84;5053307;28;20441;-45
2022/03/07 01:55:21;;;;;;;20.17;18.80;;;;;;;-2.78;93.88;102815.59;5053424;28;20497;-42
2022/03/07 01:57:50;;;;;;;21.20;19.80;;;;;;;-2.82;93.73;102813.13;5052851;28;20546;-43
2022/03/07 02:00:20;;;;;;;20.73;19.53;;;;;;;-2.84;93.81;102809.69;5053306;28;20519;-41
2022/03/07 02:02:48;;;;;;;20.50;19.17;;;;;;;-2.83;93.87;102811.41;5053217;28;20439;-42
2022/03/07 02:05:16;;;;;;;21.03;19.70;;;;;;;-2.84;93.58;102809.69;5053076;28;20455;-43
2022/03/07 02:07:44;;;;;;;22.30;20.70;;;;;;;-2.84;93.86;102811.47;5052655;28;20489;-43
2022/03/07 02:10:13;;;;;;;20.80;19.50;;;;;;;-2.86;93.92;102815.88;5053241;28;20435;-44
2022/03/07 02:12:41;;;;;;;21.60;19.87;;;;;;;-2.87;94.19;102822.03;5053170;28;20840;-42
2022/03/07 02:15:10;;;;;;;21.37;19.10;;;;;;;-2.90;94.22;102817.75;5052991;28;20493;-46
2022/03/07 02:17:38;;;;;;;21.77;19.80;;;;;;;-2.91;93.97;102810.88;5051257;28;20566;-44
2022/03/07 02:20:07;;;;;;;21.97;20.43;;;;;;;-2.93;94.26;102810.06;5051714;28;20443;-41
2022/03/07 02:22:37;;;;;;;20.50;18.77;;;;;;;-2.94;94.41;102815.34;5049911;28;20502;-45
2022/03/07 02:25:06;;;;;;;22.27;20.77;;;;;;;-2.96;94.34;102814.56;5051567;28;20447;-47
2022/03/07 02:27:35;;;;;;;21.20;19.83;;;;;;;-2.98;94.04;102822.44;5048512;28;20994;-45
2022/03/07 02:30:05;;;;;;;21.10;19.80;;;;;;;-3.00;94.22;102820.81;5051310;28;20546;-42
2022/03/07 02:32:33;;;;;;;21.70;20.20;;;;;;;-3.02;94.44;102823.50;5051592;28;20432;-41
2022/03/07 02:35:01;;;;;;;20.90;19.37;;;;;;;-3.04;94.42;102820.06;5052023;28;20535;-47
2022/03/07 02:37:30;;;;;;;23.00;21.10;;;;;;;-3.06;94.52;102826.25;5052006;28;20465;-47
2022/03/07 02:39:59;;;;;;;20.87;19.33;;;;;;;-3.08;94.66;102822.88;5052541;28;20526;-47
2022/03/07 02:42:46;;;;;;;22.00;20.47;;;;;;;-3.10;94.88;102819.44;5052221;28;20471;-43
2022/03/07 02:45:14;;;;;;;19.10;18.00;;;;;;;-3.12;94.67;102816.91;5052074;28;20458;-44
2022/03/07 02:47:44;;;;;;;22.23;20.80;;;;;;;-3.12;94.92;102811.69;5051861;28;20546;-46
2022/03/07 02:50:12;;;;;;;22.00;20.50;;;;;;;-3.11;94.97;102820.38;5052311;28;20431;-42
2022/03/07 02:52:39;;;;;;;20.87;19.70;;;;;;;-3.13;95.14;102830.00;5052384;28;20427;-43
2022/03/07 02:55:09;;;;;;;22.70;20.83;;;;;;;-3.12;95.27;102835.19;5052065;28;20463;-43
2022/03/07 02:57:37;;;;;;;21.97;20.57;;;;;;;-3.14;95.07;102831.78;5051629;28;20465;-44
2022/03/07 03:00:05;;;;;;;20.77;19.57;;;;;;;-3.17;94.84;102828.44;5052369;28;20471;-42
2022/03/07 03:02:33;;;;;;;24.87;21.63;;;;;;;-3.21;95.26;102826.84;5052253;28;20562;-45
2022/03/07 03:05:01;;;;;;;22.03;20.53;;;;;;;-3.24;94.96;102824.34;5051977;28;20454;-44
2022/03/07 03:07:28;;;;;;;23.07;21.40;;;;;;;-3.25;95.24;102825.25;5051213;28;20931;-41
2022/03/07 03:09:56;;;;;;;20.70;19.37;;;;;;;-3.27;95.36;102822.69;5051936;28;20458;-47
2022/03/07 03:12:26;;;;;;;22.90;21.30;;;;;;;-3.27;95.17;102824.47;5051826;28;20526;-43
2022/03/07 03:14:54;;;;;;;21.50;20.20;;;;;;;-3.28;95.34;102820.13;5052017;28;20547;-44
2022/03/07 03:17:22;;;;;;;22.23;20.83;;;;;;;-3.29;95.18;102818.47;5051347;28;20433;-44
2022/03/07 03:19:52;;;;;;;21.93;20.37;;;;;;;-3.31;95.29;102821.09;5052168;28;20518;-45
2022/03/07 03:22:20;;;;;;;21.53;20.23;;;;;;;-3.31;95.14;102822.84;5051660;28;20481;-49
2022/03/07 03:24:48;;;;;;;22.03;20.57;;;;;;;-3.33;95.46;102825.53;5051933;28;20431;-45
2022/03/07 03:27:15;;;;;;;21.87;20.47;;;;;;;-3.33;95.43;102822.06;5051242;28;20538;-43
2022/03/07 03:29:44;;;;;;;21.40;20.00;;;;;;;-3.33;95.34;102825.53;5051811;28;20441;-47
2022/03/07 03:32:12;;;;;;;22.77;21.17;;;;;;;-3.33;95.36;102828.16;5051794;28;20808;-44
2022/03/07 03:34:39;;;;;;;23.57;21.63;;;;;;;-3.36;95.24;102823.91;5051473;28;20932;-42
2022/03/07 03:37:07;;;;;;;21.77;20.37;;;;;;;-3.37;95.33;102830.00;5051532;28;20932;-41
2022/03/07 03:39:35;;;;;;;20.93;19.57;;;;;;;-3.36;95.54;102817.84;5050839;28;20443;-45
2022/03/07 03:42:03;;;;;;;21.17;19.87;;;;;;;-3.39;95.61;102824.00;5051675;28;20502;-47
2022/03/07 03:44:30;;;;;;;22.30;20.80;;;;;;;-3.40;95.44;102822.31;5048455;28;20819;-44
2022/03/07 03:47:02;;;;;;;22.67;21.00;;;;;;;-3.40;95.56;102830.13;5051334;28;20921;-42
2022/03/07 03:49:30;;;;;;;22.43;21.07;;;;;;;-3.40;95.52;102824.91;5050774;28;20467;-44
2022/03/07 03:51:58;;;;;;;22.67;21.10;;;;;;;-3.43;95.86;102827.63;5051688;28;20459;-44
2022/03/07 03:54:26;;;;;;;23.47;21.93;;;;;;;-3.45;95.60;102824.25;5051578;28;20435;-42
2022/03/07 03:56:53;;;;;;;23.07;21.47;;;;;;;-3.48;95.54;102823.50;5051183;28;20470;-41
2022/03/07 03:59:21;;;;;;;23.07;21.50;;;;;;;-3.49;95.64;102822.63;5050780;28;20459;-44
2022/03/07 04:01:48;;;;;;;20.50;19.33;;;;;;;-3.50;95.70;102820.97;5051324;28;20840;-42
2022/03/07 04:04:17;;;;;;;22.90;21.50;;;;;;;-3.52;95.42;102819.28;5051523;28;20446;-45
2022/03/07 04:06:45;;;;;;;22.90;21.40;;;;;;;-3.52;95.74;102827.97;5051270;28;20455;-41
2022/03/07 04:09:15;;;;;;;22.73;21.33;;;;;;;-3.52;95.59;102827.97;5050668;28;20570;-42
2022/03/07 04:11:43;;;;;;;23.77;22.03;;;;;;;-3.49;95.74;102829.59;5051400;28;20427;-43
2022/03/07 04:14:12;;;;;;;23.13;21.73;;;;;;;-3.47;95.96;102827.81;5051303;28;20434;-45
2022/03/07 04:16:40;;;;;;;22.27;20.97;;;;;;;-3.47;95.81;102826.06;5051056;28;20883;-42
2022/03/07 04:19:09;;;;;;;21.90;20.60;;;;;;;-3.45;95.97;102826.00;5050462;28;20462;-44
2022/03/07 04:21:39;;;;;;;22.37;21.10;;;;;;;-3.48;95.60;102818.28;5051299;28;20435;-43
2022/03/07 04:24:07;;;;;;;22.70;21.30;;;;;;;-3.48;95.78;102826.97;5051276;28;20450;-45
2022/03/07 04:26:35;;;;;;;23.77;22.07;;;;;;;-3.47;95.93;102820.84;5051019;28;20480;-45
2022/03/07 04:29:05;;;;;;;24.60;23.10;;;;;;;-3.46;95.82;102819.91;5050452;28;20473;-43
2022/03/07 04:31:33;;;;;;;23.13;21.57;;;;;;;-3.45;95.93;102826.00;5051335;28;20441;-44
2022/03/07 04:34:00;;;;;;;25.23;23.63;;;;;;;-3.46;95.97;102832.09;5051051;28;20449;-45
2022/03/07 04:36:28;;;;;;;26.23;24.33;;;;;;;-3.47;95.88;102835.63;5051340;28;20820;-45
2022/03/07 04:38:57;;;;;;;23.97;22.33;;;;;;;-3.47;96.02;102830.44;5050400;28;20467;-43
2022/03/07 04:41:25;;;;;;;22.43;21.20;;;;;;;-3.48;96.04;102826.09;5051060;28;20435;-47
2022/03/07 04:43:52;;;;;;;23.50;22.17;;;;;;;-3.49;96.28;102827.84;5050921;28;20485;-44
2022/03/07 04:46:20;;;;;;;23.77;21.93;;;;;;;-3.48;96.14;102828.72;5050912;28;20447;-43
2022/03/07 04:48:48;;;;;;;22.90;21.53;;;;;;;-3.47;96.29;102826.06;5050229;28;20455;-41
2022/03/07 04:51:16;;;;;;;23.30;21.90;;;;;;;-3.47;96.08;102825.22;5052226;28;20437;-43
2022/03/07 04:53:43;;;;;;;24.40;22.80;;;;;;;-3.45;96.38;102829.47;5054650;28;20522;-45
2022/03/07 04:56:12;;;;;;;26.47;24.87;;;;;;;-3.45;96.33;102837.28;5054264;28;20550;-42
2022/03/07 04:58:40;;;;;;;24.63;23.20;;;;;;;-3.47;96.43;102825.22;5053842;28;20466;-41
2022/03/07 05:01:09;;;;;;;25.20;23.47;;;;;;;-3.49;96.24;102832.22;5054645;28;20457;-44
2022/03/07 05:03:38;;;;;;;23.53;21.93;;;;;;;-3.48;96.57;102831.31;5054199;28;20475;-42
2022/03/07 05:06:06;;;;;;;25.37;23.63;;;;;;;-3.48;96.67;102836.53;5054442;28;20459;-42
2022/03/07 05:08:33;;;;;;;25.97;24.27;;;;;;;-3.49;96.70;102846.13;5053460;28;20545;-43
2022/03/07 05:11:01;;;;;;;24.17;22.87;;;;;;;-3.48;96.78;102852.19;5054471;28;20800;-41
2022/03/07 05:13:30;;;;;;;25.53;23.83;;;;;;;-3.49;96.84;102856.53;5054384;28;20796;-43
2022/03/07 05:15:58;;;;;;;24.77;23.17;;;;;;;-3.50;96.73;102857.47;5054123;28;20562;-42
2022/03/07 05:18:26;;;;;;;26.20;24.67;;;;;;;-3.52;96.72;102855.78;5053507;28;20463;-42
2022/03/07 05:20:53;;;;;;;24.90;23.43;;;;;;;-3.55;96.57;102867.19;5053972;28;20959;-42
2022/03/07 05:23:24;;;;;;;26.37;24.37;;;;;;;-3.57;96.76;102862.94;5053843;28;20497;-42
2022/03/07 05:25:52;;;;;;;24.03;22.60;;;;;;;-3.59;96.61;102863.00;5053809;28;20549;-42
2022/03/07 05:28:20;;;;;;;23.60;22.10;;;;;;;-3.60;96.69;102866.53;5053496;28;20467;-43
2022/03/07 05:30:49;;;;;;;24.10;22.70;;;;;;;-3.60;96.85;102861.31;5054023;28;20434;-44
2022/03/07 05:33:16;;;;;;;24.20;22.70;;;;;;;-3.63;96.77;102861.41;5053864;28;20792;-42
2022/03/07 05:35:44;;;;;;;23.00;21.80;;;;;;;-3.62;96.97;102857.06;5053641;28;20828;-43
2022/03/07 05:38:17;;;;;;;23.97;22.43;;;;;;;-3.62;96.96;102849.22;5053077;28;21022;-43
2022/03/07 05:40:45;;;;;;;25.70;24.00;;;;;;;-3.63;96.79;102830.13;5053866;28;20431;-43
2022/03/07 05:43:13;;;;;;;23.20;21.73;;;;;;;-3.61;96.86;102843.94;5053678;28;20998;-44
2022/03/07 05:45:41;;;;;;;23.17;21.90;;;;;;;-3.63;96.74;102843.16;5050322;28;20455;-46
2022/03/07 05:48:09;;;;;;;21.63;20.50;;;;;;;-3.61;96.82;102845.69;5052851;28;20455;-44
2022/03/07 05:50:37;;;;;;;22.60;21.40;;;;;;;-3.61;96.81;102840.47;5053728;28;20770;-49
2022/03/07 05:53:05;;;;;;;22.93;21.63;;;;;;;-3.59;96.75;102843.91;5053678;28;20518;-41
2022/03/07 05:55:33;;;;;;;23.67;22.40;;;;;;;-3.57;96.85;102836.88;5053466;28;20542;-47
2022/03/07 05:58:00;;;;;;;24.37;23.00;;;;;;;-3.55;97.03;102830.69;5052941;28;20478;-45
2022/03/07 06:00:29;;;;;;;24.27;23.07;;;;;;;-3.52;96.75;102827.97;5053278;28;20467;-43
2022/03/07 06:02:57;;;;;;;23.40;22.10;;;;;;;-3.49;96.86;102843.50;5052772;28;20490;-46
2022/03/07 06:05:26;;;;;;;23.63;22.30;;;;;;;-3.44;96.88;102835.53;5053259;28;20987;-42
2022/03/07 06:07:53;;;;;;;24.30;22.77;;;;;;;-3.42;96.87;102841.53;5052749;28;20481;-42
2022/03/07 06:10:21;;;;;;;21.70;20.37;;;;;;;-3.40;96.91;102843.16;5053340;28;20488;-42
2022/03/07 06:12:49;;;;;;;23.83;22.33;;;;;;;-3.35;97.20;102837.81;5053092;28;20803;-43
2022/03/07 06:15:19;;;;;;;24.00;22.50;;;;;;;-3.26;97.05;102834.00;5052760;28;20454;-42
2022/03/07 06:17:51;;;;;;;23.77;22.17;;;;;;;-3.00;97.42;102841.69;5052532;28;20498;-46
2022/03/07 06:20:21;;;;;;;22.93;21.63;;;;;;;-2.82;97.67;102835.75;5053135;28;20518;-44
2022/03/07 06:22:50;;;;;;;25.73;24.20;;;;;;;-2.49;97.97;102837.03;5052851;28;20872;-44
2022/03/07 06:25:18;;;;;;;23.63;22.43;;;;;;;-2.33;98.04;102840.69;5052800;28;20543;-46
2022/03/07 06:27:45;;;;;;;25.10;23.50;;;;;;;-2.23;98.29;102841.19;5052000;28;20511;-48
2022/03/07 06:30:13;;;;;;;23.50;22.20;;;;;;;-2.17;97.94;102855.75;5052917;28;20796;-47
2022/03/07 06:32:41;;;;;;;24.20;22.80;;;;;;;-2.15;97.48;102846.94;5052683;28;20518;-47
2022/03/07 06:35:13;;;;;;;24.10;22.70;;;;;;;-2.12;97.31;102849.41;5052593;28;20984;-46
2022/03/07 06:37:46;;;;;;;21.90;20.70;;;;;;;-2.11;97.02;102855.50;5051999;28;20546;-45
2022/03/07 06:40:15;;;;;;;24.00;22.63;;;;;;;-2.09;96.67;102856.31;5052430;28;20423;-43
2022/03/07 06:42:43;;;;;;;23.37;21.97;;;;;;;-2.05;96.40;102845.66;5052461;28;20447;-42
2022/03/07 06:45:12;;;;;;;23.93;22.53;;;;;;;-2.02;96.30;102836.81;5052271;28;20566;-45
2022/03/07 06:47:40;;;;;;;24.80;23.30;;;;;;;-1.99;96.20;102842.78;5051722;28;20980;-46
2022/03/07 06:50:09;;;;;;;23.33;21.93;;;;;;;-1.90;96.01;102842.38;5052750;28;20434;-45
2022/03/07 06:52:36;;;;;;;25.00;23.60;;;;;;;-1.56;96.71;102843.53;5052506;28;20522;-46
2022/03/07 06:55:05;;;;;;;24.70;23.40;;;;;;;-1.21;97.58;102841.03;5052184;28;20469;-44
2022/03/07 06:57:34;;;;;;;23.13;22.03;;;;;;;-0.82;97.81;102837.50;5059512;22;21405;-45
2022/03/07 07:00:02;;;;;;;26.10;24.60;;;;;;;-0.45;97.82;102840.06;5033761;28;20436;-44
2022/03/07 07:02:29;;;;;;;24.80;23.10;;;;;;;-0.24;97.69;102838.16;5033720;28;20520;-47
2022/03/07 07:04:58;;;;;;;24.43;22.97;;;;;;;-0.02;98.31;102837.00;5033570;28;20483;-44
2022/03/07 07:07:26;;;;;;;23.70;22.50;;;;;;;0.13;97.93;102840.59;5032762;28;20460;-44
2022/03/07 07:09:53;;;;;;;23.77;22.50;;;;;;;0.30;97.89;102837.94;5033689;28;20523;-44
2022/03/07 07:12:21;;;;;;;24.30;22.90;;;;;;;0.44;97.48;102843.34;5033973;28;20523;-45
2022/03/07 07:14:50;;;;;;;23.00;21.70;;;;;;;0.52;97.05;102833.28;5032346;28;20428;-44
2022/03/07 07:17:19;;;;;;;22.53;21.50;;;;;;;0.51;96.35;102831.59;5032194;28;20455;-44
2022/03/07 07:19:46;;;;;;;21.50;20.50;;;;;;;0.51;95.18;102828.09;5032819;28;20527;-45
2022/03/07 07:22:14;;;;;;;24.23;22.83;;;;;;;0.51;94.30;102820.22;5033048;28;20527;-47
2022/03/07 07:24:42;;;;;;;27.87;26.27;;;;;;;0.59;94.82;102825.94;5033236;28;20476;-43
2022/03/07 07:27:09;;;;;;;28.37;26.60;;;;;;;0.71;94.12;102833.16;5032257;28;20455;-44
2022/03/07 07:29:37;;;;;;;33.00;30.07;;;;;;;0.88;94.07;102830.47;5032548;28;20531;-47
2022/03/07 07:32:07;;;;;;;32.33;29.47;;;;;;;1.14;93.75;102829.03;5032546;28;20526;-44
2022/03/07 07:34:35;;;;;;;30.20;27.67;;;;;;;1.43;94.26;102823.00;5032530;28;20790;-45
2022/03/07 07:37:03;;;;;;;29.47;27.23;;;;;;;1.77;95.41;102831.56;5032443;28;20455;-45
2022/03/07 07:39:40;;;;;;;27.30;25.60;;;;;;;2.24;96.93;102838.34;5032042;28;20817;-44
2022/03/07 07:42:08;;;;;;;28.57;26.73;;;;;;;2.71;97.48;102842.53;5032267;28;20539;-46
2022/03/07 07:44:36;;;;;;;26.80;25.33;;;;;;;3.14;97.67;102838.88;5029060;28;20554;-45
2022/03/07 07:47:04;;;;;;;25.63;24.33;;;;;;;3.55;97.51;102833.59;5031602;28;20463;-49
2022/03/07 07:49:33;;;;;;;25.23;23.90;;;;;;;3.87;97.15;102826.19;5031649;28;20464;-45
2022/03/07 07:52:02;;;;;;;24.97;22.90;;;;;;;4.06;96.05;102831.88;5032152;28;20438;-46
2022/03/07 07:54:31;;;;;;;23.43;22.43;;;;;;;4.20;94.70;102830.97;5032137;28;20442;-45
2022/03/07 07:56:59;;;;;;;24.40;23.20;;;;;;;4.26;93.60;102834.03;5031726;28;20921;-45
2022/03/07 07:59:26;;;;;;;23.70;22.60;;;;;;;4.30;91.02;102843.44;5030989;28;20522;-44
2022/03/07 08:01:54;;;;;;;23.00;22.00;;;;;;;4.30;88.88;102837.34;5032245;28;20516;-44
2022/03/07 08:04:22;;;;;;;22.80;21.80;;;;;;;4.27;87.02;102838.34;5032260;28;20503;-44
2022/03/07 08:06:51;;;;;;;22.73;21.73;;;;;;;4.27;84.99;102845.47;5031788;28;20456;-44
2022/03/07 08:09:18;;;;;;;22.93;21.83;;;;;;;4.26;83.53;102839.31;5031407;28;20494;-44
2022/03/07 08:11:46;;;;;;;22.73;21.50;;;;;;;4.25;82.34;102845.56;5031972;28;20446;-44
2022/03/07 08:14:14;;;;;;;24.17;22.87;;;;;;;4.27;81.75;102848.09;5032067;28;20523;-43
2022/03/07 08:16:42;;;;;;;22.70;21.80;;;;;;;4.31;81.47;102849.56;5032117;28;20801;-47
2022/03/07 08:19:09;;;;;;;22.63;21.53;;;;;;;4.37;81.31;102851.78;5031305;28;20470;-46
2022/03/07 08:21:37;;;;;;;22.20;20.87;;;;;;;4.44;81.36;102859.19;5031801;28;20436;-44
2022/03/07 08:24:06;;;;;;;21.97;20.97;;;;;;;4.49;80.31;102856.22;5031717;28;20550;-44
2022/03/07 08:26:34;;;;;;;22.93;21.83;;;;;;;4.52;79.43;102863.09;5033099;28;20535;-46
2022/03/07 08:29:02;;;;;;;22.90;21.70;;;;;;;4.59;79.40;102859.94;5034812;28;20493;-44
2022/03/07 08:31:29;;;;;;;21.10;20.10;;;;;;;4.59;77.70;102859.94;5035689;28;20424;-45
2022/03/07 08:33:57;;;;;;;20.97;20.00;;;;;;;4.59;74.11;102862.59;5035272;28;20444;-45
2022/03/07 08:36:25;;;;;;;21.80;20.80;;;;;;;4.66;74.56;102858.53;5035415;28;20848;-44
2022/03/07 08:38:52;;;;;;;22.03;20.80;;;;;;;4.71;75.66;102853.81;5034561;28;20588;-44
2022/03/07 08:41:21;;;;;;;22.50;21.23;;;;;;;4.81;76.64;102852.19;5035313;28;20442;-44
2022/03/07 08:43:50;;;;;;;20.80;19.80;;;;;;;4.94;77.14;102857.47;5035162;28;20479;-47
2022/03/07 08:46:17;;;;;;;19.57;18.77;;;;;;;5.01;75.99;102862.22;5034931;28;20944;-45
2022/03/07 08:48:45;;;;;;;19.20;18.13;;;;;;;5.13;76.21;102857.00;5034489;28;20459;-44
2022/03/07 08:51:13;;;;;;;20.10;19.20;;;;;;;5.27;75.27;102849.75;5034992;28;20436;-45
2022/03/07 08:53:40;;;;;;;20.27;19.37;;;;;;;5.41;76.26;102851.38;5034891;28;20515;-44
2022/03/07 08:56:08;;;;;;;19.27;18.57;;;;;;;5.51;75.98;102852.41;5034949;28;20538;-45
2022/03/07 08:58:55;;;;;;;18.33;17.53;;;;;;;5.68;74.72;102849.38;5034258;28;20599;-44
2022/03/07 09:01:23;;;;;;;19.83;19.03;;;;;;;5.80;73.56;102847.59;5034985;28;20466;-43
2022/03/07 09:03:50;;;;;;;21.43;20.37;;;;;;;5.92;73.47;102852.88;5034828;28;20439;-45
2022/03/07 09:06:18;;;;;;;18.07;17.37;;;;;;;6.04;72.27;102851.94;5034753;28;20476;-44
2022/03/07 09:08:46;;;;;;;19.23;18.40;;;;;;;5.94;67.26;102861.53;5034047;28;20542;-43
2022/03/07 09:11:13;;;;;;;19.80;18.50;;;;;;;5.87;64.79;102855.03;5034636;28;21040;-44
2022/03/07 09:13:41;;;;;;;19.27;18.47;;;;;;;5.93;66.18;102864.31;5034890;28;20467;-44
2022/03/07 09:16:11;;;;;;;19.77;18.53;;;;;;;6.04;65.89;102873.13;5034690;28;20456;-44
2022/03/07 09:18:39;;;;;;;12.70;12.30;;;;;;;6.13;64.20;102869.78;5033869;28;20468;-45
2022/03/07 09:21:06;;;;;;;10.20;9.70;;;;;;;6.27;63.11;102862.63;5034787;28;20432;-44
2022/03/07 09:23:37;;;;;;;8.70;8.40;;;;;;;6.39;62.51;102859.84;5034617;28;20542;-46
2022/03/07 09:26:06;;;;;;;7.43;7.20;;;;;;;6.63;64.19;102865.91;5034365;28;20993;-45
2022/03/07 09:28:34;;;;;;;6.50;6.30;;;;;;;6.83;64.02;102866.16;5033794;28;20546;-45
2022/03/07 09:31:02;;;;;;;6.30;6.00;;;;;;;7.05;63.60;102858.16;5034153;28;20432;-44
2022/03/07 09:33:31;;;;;;;5.20;4.90;;;;;;;7.03;57.28;102870.72;5034454;28;20899;-43
2022/03/07 09:35:58;;;;;;;4.60;4.50;;;;;;;7.06;55.37;102875.78;5034520;28;20448;-44
2022/03/07 09:38:27;;;;;;;5.40;5.20;;;;;;;7.02;56.98;102880.50;5032873;28;20460;-43
2022/03/07 09:40:57;;;;;;;5.27;5.07;;;;;;;7.12;55.94;102888.56;5034453;28;20432;-46
2022/03/07 09:43:24;;;;;;;4.70;4.60;;;;;;;7.20;56.48;102872.88;5034283;28;20486;-44
2022/03/07 09:45:52;;;;;;;4.90;4.73;;;;;;;7.33;55.75;102878.91;5031115;28;20507;-44
2022/03/07 09:48:22;;;;;;;4.70;4.40;;;;;;;7.46;56.52;102878.75;5034254;28;20463;-44
2022/03/07 09:50:53;;;;;;;5.40;5.10;;;;;;;7.49;53.10;102882.00;5034349;28;20446;-44
2022/03/07 09:53:21;;;;;;;5.07;4.87;;;;;;;7.34;55.41;102887.69;5033902;28;20439;-45
2022/03/07 09:55:49;;;;;;;5.03;4.83;;;;;;;7.49;55.99;102891.78;5033695;28;20566;-46
2022/03/07 09:58:19;;;;;;;5.23;4.93;;;;;;;7.74;56.56;102883.47;5032956;28;20526;-43
2022/03/07 10:00:47;;;;;;;5.57;5.27;;;;;;;7.71;53.42;102884.56;5033820;28;20439;-46
2022/03/07 10:03:18;;;;;;;5.00;4.80;;;;;;;7.47;54.09;102888.38;5033711;28;20443;-43
2022/03/07 10:05:48;;;;;;;4.87;4.57;;;;;;;7.49;52.59;102882.00;5033746;28;20523;-46
2022/03/07 10:08:25;;;;;;;5.47;5.23;;;;;;;7.55;54.76;102876.19;5033018;28;20467;-45
2022/03/07 10:10:54;;;;;;;5.47;5.23;;;;;;;7.69;55.15;102883.03;5033722;28;20467;-45
2022/03/07 10:13:23;;;;;;;5.07;4.57;;;;;;;7.83;53.03;102882.72;5033774;28;20466;-43
2022/03/07 10:15:59;;;;;;;4.70;4.40;;;;;;;8.10;55.97;102877.78;5033606;28;20502;-43
2022/03/07 10:18:29;;;;;;;4.40;4.20;;;;;;;8.26;54.28;102880.00;5032675;28;20494;-44
2022/03/07 10:21:01;;;;;;;5.10;4.70;;;;;;;8.38;53.13;102870.16;5033235;28;20528;-44
2022/03/07 10:23:31;;;;;;;4.90;4.50;;;;;;;8.30;52.92;102876.16;5033457;28;20440;-44
2022/03/07 10:26:07;;;;;;;4.73;4.53;;;;;;;8.07;50.25;102879.84;5033042;28;20482;-44
2022/03/07 10:28:41;;;;;;;4.80;4.50;;;;;;;7.91;50.71;102882.94;5032463;28;20997;-43
2022/03/07 10:31:13;;;;;;;5.97;3.80;;;;;;;8.01;52.47;102865.25;5033165;28;20467;-44
2022/03/07 10:33:41;;;;;;;4.00;3.90;;;;;;;8.04;49.62;102870.31;5032869;28;20468;-44
2022/03/07 10:36:09;;;;;;;4.80;4.50;;;;;;;8.06;49.78;102876.38;5033072;28;20455;-45
2022/03/07 10:38:38;;;;;;;4.90;4.53;;;;;;;8.19;48.92;102866.38;5032247;28;21044;-44
2022/03/07 10:41:06;;;;;;;4.80;4.50;;;;;;;8.26;50.87;102866.69;5032970;28;20526;-44
2022/03/07 10:43:33;;;;;;;4.50;3.83;;;;;;;8.22;49.25;102874.09;5032918;28;20865;-45
2022/03/07 10:46:02;;;;;;;4.40;4.10;;;;;;;8.20;48.85;102870.72;5032334;28;20480;-45
2022/03/07 10:48:41;;;;;;;4.10;3.80;;;;;;;8.17;47.19;102878.97;5012227;28;20540;-47
2022/03/07 10:51:17;;;;;;;3.90;3.80;;;;;;;8.24;47.82;102874.78;5013082;28;20439;-46
2022/03/07 10:53:46;;;;;;;4.13;3.83;;;;;;;8.21;46.79;102874.22;5013051;28;20540;-47
2022/03/07 10:56:15;;;;;;;3.20;3.00;;;;;;;8.38;46.97;102879.00;5012866;28;20471;-45
2022/03/07 10:58:47;;;;;;;3.03;2.83;;;;;;;8.47;46.96;102885.34;5012090;28;20544;-45
2022/03/07 11:01:15;;;;;;;3.80;3.40;;;;;;;8.54;46.42;102875.88;5013083;28;20440;-44
2022/03/07 11:03:43;;;;;;;2.90;2.80;;;;;;;8.62;47.43;102879.56;5012903;28;20537;-44
2022/03/07 11:06:12;;;;;;;3.63;3.43;;;;;;;8.44;46.03;102870.50;5012628;28;20616;-44
2022/03/07 11:08:43;;;;;;;3.30;3.13;;;;;;;8.43;47.52;102860.81;5012043;28;20966;-45
2022/03/07 11:11:13;;;;;;;6.40;3.37;;;;;;;8.34;46.56;102867.75;5012666;28;21049;-45
2022/03/07 11:13:42;;;;;;;2.77;2.57;;;;;;;8.09;46.81;102883.22;5012975;28;20472;-50
2022/03/07 11:16:12;;;;;;;3.27;3.07;;;;;;;8.00;45.82;102876.88;5012601;28;20544;-45
2022/03/07 11:18:41;;;;;;;2.90;2.80;;;;;;;8.13;46.47;102869.53;5012120;28;21008;-44
2022/03/07 11:21:09;;;;;;;2.80;2.70;;;;;;;8.04;44.90;102864.16;5012647;28;20430;-47